Time;durP1;ratioP1;P1;durP2;ratioP2;P2;SDS_P1;SDS_P2;PMS_P1;PMS_P2;Temp;Humidity;BMP_temperature;BMP_pressure;BME280_temperature;BME280_humidity;BME280_pressure;Samples;Min_cycle;Max_cycle;Signal;HPM_P1;HPM_P2
2022/09/12 00:02:21;;;;;;;8.10;7.27;;;11.70;99.90;;;;;;4851211;29;20647;-46
2022/09/12 00:04:47;;;;;;;10.90;7.53;;;11.60;99.90;;;;;;4851924;29;20289;-45
2022/09/12 00:07:13;;;;;;;8.40;7.60;;;11.60;99.90;;;;;;4853835;29;20381;-45
2022/09/12 00:09:39;;;;;;;8.60;7.10;;;11.60;99.90;;;;;;4852575;29;20202;-50
2022/09/12 00:12:04;;;;;;;8.20;6.70;;;11.50;99.90;;;;;;4851977;29;20199;-45
2022/09/12 00:14:30;;;;;;;8.10;7.30;;;11.50;99.90;;;;;;4853360;29;20550;-45
2022/09/12 00:16:58;;;;;;;9.23;7.50;;;11.50;99.90;;;;;;4853175;29;20217;-46
2022/09/12 00:19:24;;;;;;;8.40;7.50;;;11.50;99.90;;;;;;4855458;29;20450;-45
2022/09/12 00:21:50;;;;;;;9.17;7.37;;;11.50;99.90;;;;;;4852148;29;20453;-46
2022/09/12 00:24:16;;;;;;;9.83;7.83;;;11.50;99.90;;;;;;4854052;29;20577;-46
2022/09/12 00:26:41;;;;;;;10.43;7.87;;;11.50;99.90;;;;;;4855516;29;20241;-46
2022/09/12 00:29:07;;;;;;;8.93;7.83;;;11.60;99.90;;;;;;4853255;29;20216;-45
2022/09/12 00:31:33;;;;;;;8.90;7.83;;;11.60;99.90;;;;;;4869395;29;20192;-45
2022/09/12 00:34:00;;;;;;;10.73;8.03;;;11.50;99.90;;;;;;4865041;29;20204;-46
2022/09/12 00:36:27;;;;;;;8.10;6.53;;;11.50;99.90;;;;;;4851673;29;20839;-45
2022/09/12 00:38:53;;;;;;;7.60;6.70;;;11.40;99.90;;;;;;4851970;29;20450;-45
2022/09/12 00:41:28;;;;;;;7.40;6.57;;;11.40;99.90;;;;;;4852124;29;20541;-46
2022/09/12 00:43:57;;;;;;;8.40;6.93;;;11.40;99.90;;;;;;4850730;29;20998;-46
2022/09/12 00:46:51;;;;;;;7.70;6.90;;;11.30;99.90;;;;;;4852332;29;20481;-45
2022/09/12 00:49:28;;;;;;;9.10;7.30;;;11.30;99.90;;;;;;4826527;29;20544;-45
2022/09/12 00:52:36;;;;;;;11.60;7.40;;;11.20;99.90;;;;;;4848070;29;20476;-47
2022/09/12 00:55:29;;;;;;;7.80;7.00;;;11.20;99.90;;;;;;4849050;29;20449;-46
2022/09/12 00:58:00;;;;;;;9.00;7.47;;;11.30;99.90;;;;;;4850669;29;20481;-46
2022/09/12 01:00:27;;;;;;;11.80;6.80;;;11.30;99.90;;;;;;4855295;29;20533;-45
2022/09/12 01:02:58;;;;;;;8.40;7.10;;;11.20;99.90;;;;;;4856150;29;20458;-46
2022/09/12 01:05:26;;;;;;;9.20;7.30;;;11.20;99.90;;;;;;4857957;29;20541;-46
2022/09/12 01:07:53;;;;;;;8.17;6.67;;;11.20;99.90;;;;;;4845255;29;20473;-46
2022/09/12 01:10:20;;;;;;;11.30;8.73;;;11.20;99.90;;;;;;4856576;29;20445;-46
2022/09/12 01:12:46;;;;;;;13.73;6.60;;;11.20;99.90;;;;;;4857722;29;20499;-46
2022/09/12 01:15:12;;;;;;;12.27;7.83;;;11.20;99.90;;;;;;4856632;29;20564;-45
2022/09/12 01:17:59;;;;;;;9.40;7.93;;;11.20;99.90;;;;;;4858947;29;20504;-45
2022/09/12 01:21:06;;;;;;;8.63;7.80;;;11.20;99.90;;;;;;4856396;29;20279;-48
2022/09/12 01:23:37;;;;;;;8.17;7.37;;;11.20;99.90;;;;;;4856830;29;20448;-49
2022/09/12 01:26:11;;;;;;;9.30;7.17;;;11.10;99.90;;;;;;4857328;29;20517;-48
2022/09/12 01:28:53;;;;;;;9.53;7.80;;;11.10;99.90;;;;;;4839360;29;20483;-49
2022/09/12 01:31:41;;;;;;;12.90;8.40;;;11.00;99.90;;;;;;4856309;29;20471;-49
2022/09/12 01:34:28;;;;;;;11.23;8.10;;;11.00;99.90;;;;;;4857052;29;20457;-48
2022/09/12 01:37:12;;;;;;;8.30;7.07;;;11.00;99.90;;;;;;4856168;29;20565;-49
2022/09/12 01:40:25;;;;;;;7.70;6.60;;;10.90;99.90;;;;;;4857308;29;20442;-49
2022/09/12 01:43:03;;;;;;;10.33;7.43;;;10.90;99.90;;;;;;4841064;29;20466;-50
2022/09/12 01:45:34;;;;;;;8.60;7.27;;;10.90;99.90;;;;;;4856569;29;20494;-49
2022/09/12 01:48:11;;;;;;;8.17;7.37;;;10.90;99.90;;;;;;4857875;29;20473;-48
2022/09/12 01:50:49;;;;;;;9.60;7.73;;;10.90;99.90;;;;;;4857037;29;20477;-49
2022/09/12 01:53:21;;;;;;;9.23;8.10;;;10.90;99.90;;;;;;4856682;29;20456;-49
2022/09/12 01:56:02;;;;;;;10.20;8.07;;;10.90;99.90;;;;;;4855232;29;20836;-49
2022/09/12 01:58:52;;;;;;;11.60;7.80;;;10.90;99.90;;;;;;4855533;29;20914;-49
2022/09/12 02:01:28;;;;;;;8.10;7.17;;;10.90;99.90;;;;;;4855752;29;20441;-49
2022/09/12 02:04:00;;;;;;;8.70;7.27;;;10.80;99.90;;;;;;4847596;29;20665;-49
2022/09/12 02:06:36;;;;;;;10.10;8.00;;;10.80;99.90;;;;;;4855759;29;20464;-49
2022/09/12 02:09:11;;;;;;;7.93;6.67;;;10.70;99.90;;;;;;4856845;29;20441;-49
2022/09/12 02:11:42;;;;;;;7.63;6.83;;;10.70;99.90;;;;;;4857605;29;20472;-49
2022/09/12 02:14:20;;;;;;;10.10;8.13;;;10.70;99.90;;;;;;4855907;29;20880;-49
2022/09/12 02:16:53;;;;;;;10.60;8.40;;;10.70;99.90;;;;;;4855981;29;20810;-49
2022/09/12 02:19:27;;;;;;;9.20;8.00;;;10.70;99.90;;;;;;4856023;29;20936;-49
2022/09/12 02:21:56;;;;;;;11.60;8.07;;;10.70;99.90;;;;;;4857083;29;20436;-50
2022/09/12 02:24:30;;;;;;;9.27;7.60;;;10.60;99.90;;;;;;4854378;29;20449;-50
2022/09/12 02:27:02;;;;;;;9.00;8.10;;;10.70;99.90;;;;;;4856532;29;20585;-49
2022/09/12 02:29:28;;;;;;;10.40;8.33;;;10.70;99.90;;;;;;4846909;29;20465;-49
2022/09/12 02:31:58;;;;;;;9.33;7.20;;;10.70;99.90;;;;;;4856756;29;20894;-49
2022/09/12 02:34:55;;;;;;;10.53;7.90;;;10.70;99.90;;;;;;4855819;29;20204;-49
2022/09/12 02:37:31;;;;;;;9.47;8.10;;;10.70;99.90;;;;;;4856654;29;20855;-50
2022/09/12 02:39:57;;;;;;;9.23;7.40;;;10.70;99.90;;;;;;4849497;29;20458;-49
2022/09/12 02:42:24;;;;;;;9.97;7.37;;;10.60;99.90;;;;;;4859844;29;20465;-49
2022/09/12 02:44:53;;;;;;;12.57;7.90;;;10.60;99.90;;;;;;4859908;29;21184;-50
2022/09/12 02:47:28;;;;;;;11.63;7.53;;;10.50;99.90;;;;;;4858135;29;20477;-49
2022/09/12 02:49:55;;;;;;;8.00;7.10;;;10.50;99.90;;;;;;4858148;29;20786;-49
2022/09/12 02:52:21;;;;;;;6.90;6.20;;;10.50;99.90;;;;;;4860579;29;20441;-49
2022/09/12 02:54:47;;;;;;;8.60;7.10;;;10.40;99.90;;;;;;4858392;29;20445;-49
2022/09/12 02:57:20;;;;;;;9.23;7.00;;;10.40;99.90;;;;;;4858449;29;20261;-49
2022/09/12 02:59:48;;;;;;;7.17;6.47;;;10.30;99.90;;;;;;4850047;29;20551;-49
2022/09/12 03:02:31;;;;;;;8.43;6.77;;;10.30;99.90;;;;;;4859302;29;20449;-49
2022/09/12 03:05:21;;;;;;;8.50;6.60;;;10.30;99.90;;;;;;4859475;29;20531;-50
2022/09/12 03:08:05;;;;;;;9.00;6.00;;;10.20;99.90;;;;;;4860737;29;20840;-49
2022/09/12 03:10:58;;;;;;;7.87;7.07;;;10.20;99.90;;;;;;4856965;29;20446;-49
2022/09/12 03:13:36;;;;;;;7.30;6.50;;;10.20;99.90;;;;;;4852296;29;20453;-49
2022/09/12 03:16:27;;;;;;;7.10;6.40;;;10.20;99.90;;;;;;4859738;29;20477;-50
2022/09/12 03:19:18;;;;;;;10.53;7.30;;;10.20;99.90;;;;;;4858579;29;22057;-50
2022/09/12 03:21:59;;;;;;;8.90;7.07;;;10.20;99.90;;;;;;4857608;29;20477;-49
2022/09/12 03:24:49;;;;;;;8.67;7.13;;;10.10;99.90;;;;;;4860142;29;20471;-49
2022/09/12 03:27:21;;;;;;;8.40;6.80;;;10.10;99.90;;;;;;4859063;29;20525;-47
2022/09/12 03:29:47;;;;;;;8.60;7.07;;;10.10;99.90;;;;;;4859946;29;20799;-49
2022/09/12 03:32:14;;;;;;;8.80;7.60;;;10.10;99.90;;;;;;4858448;29;20450;-49
2022/09/12 03:34:39;;;;;;;10.53;7.40;;;10.10;99.90;;;;;;4859766;29;20460;-49
2022/09/12 03:37:05;;;;;;;8.80;7.10;;;10.10;99.90;;;;;;4859190;29;20951;-50
2022/09/12 03:39:31;;;;;;;7.80;6.80;;;10.10;99.90;;;;;;4859487;29;20197;-49
2022/09/12 03:41:57;;;;;;;8.73;7.03;;;10.10;99.90;;;;;;4857383;29;20250;-49
2022/09/12 03:44:23;;;;;;;9.03;7.90;;;10.10;99.90;;;;;;4859352;29;20438;-49
2022/09/12 03:46:49;;;;;;;10.17;8.53;;;10.20;99.90;;;;;;4859487;29;20225;-49
2022/09/12 03:49:16;;;;;;;10.40;8.13;;;10.20;99.90;;;;;;4858231;29;20449;-49
2022/09/12 03:51:42;;;;;;;9.37;7.87;;;10.20;99.90;;;;;;4857775;29;20453;-47
2022/09/12 03:54:08;;;;;;;13.07;9.20;;;10.20;1.00;;;;;;4858719;29;20437;-49
2022/09/12 03:56:34;;;;;;;9.70;8.23;;;10.20;1.00;;;;;;4858826;29;21095;-49
2022/09/12 03:59:00;;;;;;;10.27;7.80;;;10.20;1.00;;;;;;4859012;29;20509;-49
2022/09/12 04:01:26;;;;;;;12.83;8.10;;;10.20;1.00;;;;;;4857729;29;20850;-49
2022/09/12 04:03:51;;;;;;;13.73;9.67;;;10.20;1.00;;;;;;4859015;29;20193;-49
2022/09/12 04:06:20;;;;;;;13.33;8.50;;;10.30;1.00;;;;;;4857920;29;20205;-50
2022/09/12 04:08:51;;;;;;;10.33;8.90;;;10.20;1.00;;;;;;4859264;29;20281;-49
2022/09/12 04:11:19;;;;;;;10.00;8.40;;;10.20;1.00;;;;;;4856475;29;20452;-49
2022/09/12 04:13:45;;;;;;;10.70;8.17;;;10.10;1.00;;;;;;4857624;29;20445;-49
2022/09/12 04:16:12;;;;;;;9.97;8.00;;;10.10;1.00;;;;;;4858037;29;20468;-49
2022/09/12 04:18:38;;;;;;;11.03;9.07;;;10.10;1.00;;;;;;4858614;29;20544;-48
2022/09/12 04:21:10;;;;;;;10.17;8.13;;;10.10;1.00;;;;;;4858881;29;20499;-49
2022/09/12 04:23:35;;;;;;;14.67;9.73;;;10.10;1.00;;;;;;4842142;29;20446;-48
2022/09/12 04:26:05;;;;;;;13.60;9.63;;;10.20;1.00;;;;;;4857086;29;20501;-49
2022/09/12 04:28:31;;;;;;;11.80;9.00;;;10.20;1.00;;;;;;4850197;29;20256;-49
2022/09/12 04:31:02;;;;;;;14.10;9.37;;;10.30;1.00;;;;;;4858034;29;20450;-50
2022/09/12 04:33:28;;;;;;;12.00;9.37;;;10.30;1.00;;;;;;4857441;29;20454;-49
2022/09/12 04:35:54;;;;;;;12.10;9.20;;;10.30;1.00;;;;;;4859913;29;20501;-49
2022/09/12 04:38:19;;;;;;;13.27;9.63;;;10.30;1.00;;;;;;4858341;29;20193;-49
2022/09/12 04:40:45;;;;;;;11.20;9.20;;;10.30;1.00;;;;;;4858680;29;20296;-49
2022/09/12 04:43:10;;;;;;;10.97;8.60;;;10.30;1.00;;;;;;4858508;29;20205;-49
2022/09/12 04:45:36;;;;;;;12.53;9.07;;;10.20;1.00;;;;;;4857447;29;20921;-50
2022/09/12 04:48:02;;;;;;;12.13;9.20;;;10.20;1.00;;;;;;4859368;29;20655;-49
2022/09/12 04:50:27;;;;;;;9.23;8.23;;;10.20;1.00;;;;;;4857012;29;20193;-49
2022/09/12 04:52:53;;;;;;;9.63;8.17;;;10.20;1.00;;;;;;4856711;29;20292;-49
2022/09/12 04:55:21;;;;;;;12.53;10.00;;;10.10;1.00;;;;;;4858066;29;20240;-49
2022/09/12 04:57:46;;;;;;;16.80;10.43;;;10.10;1.00;;;;;;4856289;29;20489;-48
2022/09/12 05:00:13;;;;;;;16.60;11.07;;;10.10;1.00;;;;;;4858327;29;20445;-49
2022/09/12 05:02:39;;;;;;;15.80;11.40;;;10.20;1.00;;;;;;4840606;29;20212;-49
2022/09/12 05:05:06;;;;;;;16.40;10.93;;;10.20;1.00;;;;;;4857436;29;20943;-49
2022/09/12 05:07:32;;;;;;;16.40;10.70;;;10.20;1.00;;;;;;4857076;29;21007;-49
2022/09/12 05:09:59;;;;;;;17.47;11.33;;;10.30;1.00;;;;;;4857411;29;20520;-50
2022/09/12 05:12:25;;;;;;;13.50;11.00;;;10.30;1.00;;;;;;4857944;29;20448;-49
2022/09/12 05:14:50;;;;;;;16.63;11.00;;;10.30;1.00;;;;;;4856659;29;20446;-50
2022/09/12 05:17:16;;;;;;;14.67;10.70;;;10.30;1.00;;;;;;4855803;29;20193;-49
2022/09/12 05:19:42;;;;;;;14.00;10.70;;;10.30;1.00;;;;;;4856166;29;20192;-49
2022/09/12 05:22:08;;;;;;;17.63;11.50;;;10.30;1.00;;;;;;4857167;29;20658;-49
2022/09/12 05:24:34;;;;;;;18.97;12.07;;;10.30;1.00;;;;;;4856445;29;20193;-49
2022/09/12 05:26:59;;;;;;;13.10;10.63;;;10.40;1.00;;;;;;4858231;29;20610;-49
2022/09/12 05:29:25;;;;;;;16.30;12.63;;;10.40;1.00;;;;;;4858819;29;20199;-49
2022/09/12 05:31:52;;;;;;;18.27;13.97;;;10.40;1.00;;;;;;4857181;29;20193;-49
2022/09/12 05:34:18;;;;;;;18.73;13.23;;;10.50;1.00;;;;;;4857971;29;20200;-47
2022/09/12 05:36:44;;;;;;;22.27;14.27;;;10.50;1.00;;;;;;4856936;29;20497;-47
2022/09/12 05:39:10;;;;;;;17.90;13.83;;;10.60;1.00;;;;;;4856130;29;20520;-49
2022/09/12 05:41:35;;;;;;;18.67;13.40;;;10.60;1.00;;;;;;4857121;29;20205;-49
2022/09/12 05:44:04;;;;;;;20.37;13.90;;;10.70;1.00;;;;;;4857621;29;20201;-49
2022/09/12 05:46:41;;;;;;;24.70;16.40;;;10.70;1.00;;;;;;4856716;29;20201;-49
2022/09/12 05:49:11;;;;;;;26.77;16.60;;;10.80;1.00;;;;;;4857869;29;20438;-49
2022/09/12 05:51:40;;;;;;;21.77;14.60;;;10.90;1.00;;;;;;4855839;29;20457;-50
2022/09/12 05:54:09;;;;;;;23.10;16.40;;;11.00;1.00;;;;;;4870726;29;20429;-48
2022/09/12 05:56:38;;;;;;;28.03;16.47;;;11.10;1.00;;;;;;4868792;29;20533;-49
2022/09/12 05:59:06;;;;;;;24.47;15.90;;;11.20;1.00;;;;;;4860059;29;20452;-49
2022/09/12 06:01:34;;;;;;;22.50;15.70;;;11.30;1.00;;;;;;4858643;29;20445;-49
2022/09/12 06:04:02;;;;;;;27.90;18.10;;;11.40;1.00;;;;;;4857383;29;20453;-48
2022/09/12 06:06:30;;;;;;;33.37;20.13;;;11.40;1.00;;;;;;4858437;29;20796;-49
2022/09/12 06:08:58;;;;;;;26.13;17.50;;;11.60;1.00;;;;;;4858299;29;20449;-48
2022/09/12 06:11:27;;;;;;;34.00;20.87;;;11.70;1.00;;;;;;4858382;29;20524;-50
2022/09/12 06:13:55;;;;;;;45.27;24.30;;;11.90;1.00;;;;;;4857608;29;20414;-49
2022/09/12 06:16:29;;;;;;;38.40;23.30;;;12.00;1.00;;;;;;4850951;29;20502;-48
2022/09/12 06:18:57;;;;;;;38.30;23.83;;;12.20;1.00;;;;;;4845032;29;20443;-49
2022/09/12 06:21:25;;;;;;;46.93;26.13;;;12.40;1.00;;;;;;4860818;29;20437;-50
2022/09/12 06:23:52;;;;;;;38.93;25.07;;;12.50;1.00;;;;;;4861625;29;20425;-49
2022/09/12 06:26:20;;;;;;;42.50;25.20;;;12.60;1.00;;;;;;4860258;29;20433;-49
2022/09/12 06:28:46;;;;;;;39.10;25.40;;;12.90;1.00;;;;;;4861362;29;21031;-49
2022/09/12 06:31:25;;;;;;;43.03;26.10;;;13.00;1.00;;;;;;4859644;29;20532;-49
2022/09/12 06:33:52;;;;;;;37.00;24.57;;;13.30;1.00;;;;;;4861704;29;20201;-50
2022/09/12 06:36:24;;;;;;;34.60;22.03;;;13.50;1.00;;;;;;4863995;29;20549;-50
2022/09/12 06:38:58;;;;;;;34.87;24.50;;;13.80;1.00;;;;;;4860603;29;20449;-50
2022/09/12 06:41:24;;;;;;;34.67;22.93;;;14.10;1.00;;;;;;4860721;29;20485;-52
2022/09/12 06:43:50;;;;;;;29.53;21.50;;;14.30;1.00;;;;;;4862134;29;20912;-47
2022/09/12 06:46:16;;;;;;;23.87;19.03;;;14.60;1.00;;;;;;4860663;29;20444;-48
2022/09/12 06:48:42;;;;;;;25.33;17.57;;;14.80;1.00;;;;;;4861781;29;20213;-46
2022/09/12 06:51:12;;;;;;;25.93;18.37;;;15.10;1.00;;;;;;4860062;29;20456;-48
2022/09/12 06:53:38;;;;;;;22.37;17.10;;;15.40;1.00;;;;;;4855520;29;20584;-46
2022/09/12 06:56:14;;;;;;;19.13;14.30;;;15.70;99.90;;;;;;4875833;29;20424;-45
2022/09/12 06:58:40;;;;;;;22.73;17.73;;;16.10;99.90;;;;;;4861049;29;20425;-46
2022/09/12 07:01:09;;;;;;;16.33;14.13;;;16.40;99.90;;;;;;4861060;29;20414;-45
2022/09/12 07:03:37;;;;;;;13.70;12.27;;;16.60;99.90;;;;;;4860663;29;20509;-45
2022/09/12 07:06:11;;;;;;;14.10;11.70;;;16.70;1.00;;;;;;4860051;29;20433;-48
2022/09/12 07:08:37;;;;;;;13.70;12.03;;;17.00;98.50;;;;;;4859741;29;20483;-48
2022/09/12 07:11:09;;;;;;;14.80;11.97;;;17.20;1.00;;;;;;4860322;29;20477;-48
2022/09/12 07:13:35;;;;;;;12.43;11.13;;;17.50;1.00;;;;;;4860488;29;20422;-48
2022/09/12 07:16:01;;;;;;;12.63;11.33;;;17.70;1.00;;;;;;4859859;29;20462;-48
2022/09/12 07:18:28;;;;;;;11.47;10.37;;;18.10;99.90;;;;;;4860881;29;20192;-49
2022/09/12 07:20:53;;;;;;;12.43;8.90;;;18.40;1.00;;;;;;4860004;29;20526;-49
2022/09/12 07:23:19;;;;;;;11.53;10.00;;;18.80;99.90;;;;;;4851652;29;20450;-45
2022/09/12 07:25:52;;;;;;;8.93;8.13;;;19.00;99.90;;;;;;4858366;29;20189;-45
2022/09/12 07:28:18;;;;;;;10.37;9.27;;;19.30;21.20;;;;;;4858750;29;20981;-45
2022/09/12 07:30:43;;;;;;;10.40;9.13;;;19.50;91.20;;;;;;4860657;29;20434;-45
2022/09/12 07:33:09;;;;;;;8.67;7.83;;;19.80;99.90;;;;;;4859613;29;20188;-46
2022/09/12 07:35:35;;;;;;;9.10;7.60;;;20.00;10.00;;;;;;4845039;29;20259;-49
2022/09/12 07:38:01;;;;;;;8.33;7.53;;;20.20;99.90;;;;;;4847763;29;20216;-49
2022/09/12 07:40:26;;;;;;;8.97;8.07;;;20.50;99.90;;;;;;4851554;29;20579;-47
2022/09/12 07:42:52;;;;;;;9.40;8.40;;;20.70;77.50;;;;;;4851906;29;20540;-46
2022/09/12 07:45:17;;;;;;;9.57;8.57;;;21.00;1.00;;;;;;4855456;29;20277;-46
2022/09/12 07:47:43;;;;;;;9.03;7.40;;;21.30;1.00;;;;;;4861934;29;20213;-46
2022/09/12 07:50:09;;;;;;;9.53;6.83;;;21.60;1.00;;;;;;4850716;29;20187;-47
2022/09/12 07:52:35;;;;;;;7.90;7.20;;;21.80;1.00;;;;;;4856903;29;20281;-47
2022/09/12 07:55:01;;;;;;;7.30;6.60;;;22.00;1.00;;;;;;4863618;29;20189;-47
2022/09/12 07:57:27;;;;;;;8.50;6.87;;;22.20;1.00;;;;;;4857716;29;20429;-47
2022/09/12 07:59:52;;;;;;;8.10;6.40;;;22.40;1.00;;;;;;4856972;29;20449;-48
2022/09/12 08:02:18;;;;;;;7.90;6.80;;;22.70;1.00;;;;;;4858201;29;20610;-47
2022/09/12 08:04:45;;;;;;;9.50;7.10;;;23.00;1.00;;;;;;4857803;29;20189;-47
2022/09/12 08:07:11;;;;;;;9.20;6.50;;;23.20;1.00;;;;;;4856266;29;20469;-48
2022/09/12 08:09:37;;;;;;;7.53;6.83;;;23.30;1.00;;;;;;4845647;29;20422;-48
2022/09/12 08:12:03;;;;;;;9.57;7.57;;;23.30;1.00;;;;;;4858099;29;21372;-48
2022/09/12 08:14:28;;;;;;;7.63;6.93;;;23.60;1.00;;;;;;4854103;29;20204;-48
2022/09/12 08:16:54;;;;;;;7.07;6.37;;;24.00;1.00;;;;;;4847039;29;20936;-47
2022/09/12 08:19:21;;;;;;;6.87;6.27;;;24.00;1.00;;;;;;4859810;29;20263;-47
2022/09/12 08:21:47;;;;;;;6.50;5.90;;;24.00;1.00;;;;;;4854086;29;20193;-48
2022/09/12 08:24:13;;;;;;;5.90;5.40;;;24.00;1.00;;;;;;4854404;29;20450;-47
2022/09/12 08:26:38;;;;;;;6.77;6.17;;;23.80;1.00;;;;;;4856974;29;20441;-47
2022/09/12 08:29:04;;;;;;;6.73;5.60;;;23.60;99.90;;;;;;4853530;29;20215;-48
2022/09/12 08:31:36;;;;;;;5.70;5.20;;;23.60;99.90;;;;;;4859033;29;20662;-47
2022/09/12 08:34:04;;;;;;;5.20;4.70;;;23.70;1.00;;;;;;4856594;29;20550;-47
2022/09/12 08:36:30;;;;;;;4.57;4.17;;;23.70;1.00;;;;;;4860665;29;20473;-47
2022/09/12 08:39:01;;;;;;;6.03;5.03;;;23.70;99.90;;;;;;4858297;29;20442;-47
2022/09/12 08:41:39;;;;;;;5.10;4.70;;;23.60;99.90;;;;;;4854775;29;20469;-47
2022/09/12 08:44:33;;;;;;;7.33;6.27;;;23.50;99.90;;;;;;4851680;29;20438;-48
2022/09/12 08:47:08;;;;;;;5.53;5.03;;;23.50;99.90;;;;;;4851780;29;20488;-49
2022/09/12 08:49:40;;;;;;;6.30;5.03;;;23.30;99.90;;;;;;4850538;29;20449;-49
2022/09/12 08:52:13;;;;;;;6.83;4.40;;;22.70;99.90;;;;;;4847739;29;20772;-50
2022/09/12 08:54:39;;;;;;;4.87;4.40;;;22.60;99.90;;;;;;4858690;29;20486;-48
2022/09/12 08:57:08;;;;;;;7.97;4.50;;;22.80;99.90;;;;;;4858542;29;20430;-48
2022/09/12 08:59:40;;;;;;;5.50;4.50;;;22.70;99.90;;;;;;4853991;29;20446;-49
2022/09/12 09:02:28;;;;;;;4.43;4.00;;;22.50;99.90;;;;;;4854628;29;20499;-50
2022/09/12 09:05:16;;;;;;;4.67;4.27;;;22.60;99.90;;;;;;4846180;29;20441;-52
2022/09/12 09:07:51;;;;;;;4.23;3.83;;;22.60;99.90;;;;;;4858935;29;20489;-50
2022/09/12 09:10:31;;;;;;;4.77;4.30;;;22.60;99.90;;;;;;4857687;29;20478;-50
2022/09/12 09:13:03;;;;;;;5.50;5.00;;;22.60;99.90;;;;;;4856940;29;20444;-63
2022/09/12 09:16:11;;;;;;;5.20;4.70;;;22.60;99.90;;;;;;4857450;29;20561;-50
2022/09/12 09:18:38;;;;;;;5.97;4.17;;;22.60;99.90;;;;;;4860005;29;20488;-52
2022/09/12 09:21:19;;;;;;;6.00;4.20;;;22.80;99.90;;;;;;4822814;29;20503;-51
2022/09/12 09:23:49;;;;;;;3.83;3.40;;;22.80;99.90;;;;;;4858861;29;20512;-50
2022/09/12 09:26:26;;;;;;;4.43;4.03;;;22.80;99.90;;;;;;4857880;29;20473;-50
2022/09/12 09:29:01;;;;;;;6.47;3.93;;;22.80;99.90;;;;;;4858509;29;20425;-50
2022/09/12 09:31:37;;;;;;;4.80;4.30;;;22.40;99.90;;;;;;4858549;29;20508;-50
2022/09/12 09:34:14;;;;;;;6.30;4.33;;;22.20;99.90;;;;;;4858419;29;20510;-50
2022/09/12 09:36:50;;;;;;;4.90;4.10;;;22.10;99.90;;;;;;4856678;29;20488;-52
2022/09/12 09:39:28;;;;;;;5.40;4.60;;;22.20;99.90;;;;;;4847319;29;20480;-51
2022/09/12 09:42:22;;;;;;;5.37;3.90;;;22.10;99.90;;;;;;4852838;29;20940;-51
2022/09/12 09:44:48;;;;;;;4.90;4.40;;;22.00;99.90;;;;;;4858774;29;20481;-51
2022/09/12 09:47:16;;;;;;;5.53;3.77;;;22.00;99.90;;;;;;4857696;29;20504;-50
2022/09/12 09:49:42;;;;;;;4.70;3.70;;;21.90;99.90;;;;;;4857354;29;20534;-52
2022/09/12 09:52:13;;;;;;;6.27;3.80;;;21.90;99.90;;;;;;4857306;29;20534;-51
2022/09/12 09:54:52;;;;;;;6.17;4.00;;;22.10;99.90;;;;;;4852157;29;21072;-51
2022/09/12 09:57:51;;;;;;;5.60;3.67;;;22.20;99.90;;;;;;4855239;29;20481;-51
2022/09/12 10:00:34;;;;;;;5.13;4.67;;;22.30;1.00;;;;;;4849007;29;20613;-52
2022/09/12 10:03:08;;;;;;;3.63;3.33;;;22.20;99.90;;;;;;4858459;29;20441;-52
2022/09/12 10:05:57;;;;;;;3.80;3.20;;;22.30;99.90;;;;;;4854297;29;20974;-51
2022/09/12 10:08:25;;;;;;;5.43;4.93;;;22.50;99.90;;;;;;4848756;29;20485;-50
2022/09/12 10:11:00;;;;;;;4.10;3.70;;;22.70;99.90;;;;;;4857313;29;20470;-55
2022/09/12 10:13:34;;;;;;;4.37;3.97;;;22.60;99.90;;;;;;4847268;29;20484;-50
2022/09/12 10:16:04;;;;;;;4.17;3.10;;;22.70;99.90;;;;;;4862048;29;20437;-50
2022/09/12 10:18:34;;;;;;;3.87;3.50;;;22.70;99.90;;;;;;4849320;29;20457;-50
2022/09/12 10:21:02;;;;;;;3.30;3.03;;;22.80;99.90;;;;;;4856150;29;20803;-50
2022/09/12 10:23:36;;;;;;;5.20;3.97;;;22.90;99.90;;;;;;4856155;29;20469;-50
2022/09/12 10:26:07;;;;;;;6.23;3.50;;;23.10;99.90;;;;;;4857361;29;20421;-50
2022/09/12 10:28:38;;;;;;;4.97;4.07;;;23.20;99.90;;;;;;4857612;29;21150;-53
2022/09/12 10:31:06;;;;;;;5.13;3.53;;;23.20;99.90;;;;;;4840719;29;20446;-51
2022/09/12 10:33:40;;;;;;;4.03;3.07;;;23.10;99.90;;;;;;4857578;29;20851;-55
2022/09/12 10:36:06;;;;;;;3.50;3.20;;;23.30;99.90;;;;;;4840660;29;20477;-50
2022/09/12 10:38:33;;;;;;;11.40;2.90;;;23.70;99.90;;;;;;4857253;29;20534;-50
2022/09/12 10:41:10;;;;;;;2.97;2.47;;;24.00;99.90;;;;;;4855992;29;20594;-50
2022/09/12 10:43:38;;;;;;;4.27;2.23;;;24.20;99.90;;;;;;4844121;29;20452;-51
2022/09/12 10:46:26;;;;;;;4.37;3.00;;;24.40;99.90;;;;;;4857202;29;20441;-50
2022/09/12 10:49:22;;;;;;;6.13;2.73;;;24.50;99.90;;;;;;4854622;29;20473;-50
2022/09/12 10:51:48;;;;;;;2.67;2.20;;;24.60;99.90;;;;;;4857031;29;20452;-50
2022/09/12 10:54:17;;;;;;;2.33;2.10;;;24.50;99.90;;;;;;4857149;29;20445;-50
2022/09/12 10:57:14;;;;;;;2.50;2.30;;;24.50;99.90;;;;;;4857044;29;20434;-50
2022/09/12 11:00:16;;;;;;;1.90;1.80;;;24.50;99.90;;;;;;4841013;29;20457;-50
2022/09/12 11:02:50;;;;;;;1.90;1.80;;;24.70;99.90;;;;;;4819574;29;20906;-51
2022/09/12 11:06:00;;;;;;;2.47;2.27;;;24.80;99.90;;;;;;4843275;29;20534;-50
2022/09/12 11:08:58;;;;;;;1.87;1.77;;;24.70;99.90;;;;;;4811543;29;20493;-50
2022/09/12 11:11:33;;;;;;;3.37;1.97;;;24.80;99.90;;;;;;4855212;29;20461;-50
2022/09/12 11:14:14;;;;;;;1.83;1.73;;;24.80;99.90;;;;;;4859698;29;20517;-50
2022/09/12 11:17:05;;;;;;;2.60;2.20;;;24.90;99.90;;;;;;4860157;29;20441;-53
2022/09/12 11:19:49;;;;;;;2.20;2.00;;;24.70;99.90;;;;;;4848626;29;20870;-49
2022/09/12 11:22:15;;;;;;;2.30;2.10;;;24.60;99.90;;;;;;4861092;29;20881;-51
2022/09/12 11:24:52;;;;;;;2.30;2.10;;;24.50;99.90;;;;;;4859626;29;20441;-50
2022/09/12 11:27:48;;;;;;;4.30;2.20;;;24.40;99.90;;;;;;4846916;29;20236;-50
2022/09/12 11:30:16;;;;;;;3.83;2.77;;;24.40;99.90;;;;;;4859871;29;20449;-50
2022/09/12 11:33:14;;;;;;;2.40;2.20;;;24.60;99.90;;;;;;4860174;29;20590;-50
2022/09/12 11:35:48;;;;;;;4.17;2.30;;;24.60;99.90;;;;;;4860722;29;20577;-50
2022/09/12 11:38:33;;;;;;;2.33;1.90;;;24.50;99.90;;;;;;4860355;29;20536;-51
2022/09/12 11:41:10;;;;;;;3.53;2.37;;;24.70;99.90;;;;;;4861028;29;20726;-51
2022/09/12 11:43:54;;;;;;;2.97;2.10;;;24.70;99.90;;;;;;4859086;29;20966;-50
2022/09/12 11:46:35;;;;;;;2.97;2.20;;;24.70;99.90;;;;;;4860857;29;20410;-50
2022/09/12 11:49:12;;;;;;;2.30;2.20;;;24.50;99.90;;;;;;4858796;29;20452;-50
2022/09/12 11:52:01;;;;;;;3.13;2.40;;;24.50;99.90;;;;;;4859496;29;20572;-50
2022/09/12 11:54:52;;;;;;;2.73;2.23;;;24.50;99.90;;;;;;4859328;29;20442;-50
2022/09/12 11:57:24;;;;;;;2.27;2.17;;;24.60;99.90;;;;;;4857424;29;20445;-50
2022/09/12 12:00:01;;;;;;;3.50;2.53;;;24.60;99.90;;;;;;4859753;29;20513;-50
2022/09/12 12:02:26;;;;;;;2.50;2.17;;;24.60;99.90;;;;;;4859980;29;20480;-58
2022/09/12 12:05:01;;;;;;;2.60;2.13;;;24.50;99.90;;;;;;4860101;29;20414;-60
2022/09/12 12:07:40;;;;;;;4.47;2.80;;;24.50;99.90;;;;;;4859348;29;20264;-50
2022/09/12 12:10:19;;;;;;;3.00;2.80;;;24.60;99.90;;;;;;4857924;29;20456;-50
2022/09/12 12:12:46;;;;;;;4.03;3.00;;;24.60;99.90;;;;;;4858238;29;20449;-50
2022/09/12 12:15:15;;;;;;;3.53;2.50;;;24.70;99.90;;;;;;4859723;29;20923;-51
2022/09/12 12:17:41;;;;;;;2.73;2.53;;;24.90;99.90;;;;;;4851179;29;20488;-50
2022/09/12 12:20:19;;;;;;;3.13;2.47;;;25.10;99.90;;;;;;4859600;29;20875;-51
2022/09/12 12:22:52;;;;;;;2.57;2.37;;;25.30;99.90;;;;;;4857703;29;20445;-51
2022/09/12 12:25:18;;;;;;;2.70;2.50;;;25.70;99.90;;;;;;4859006;29;21093;-51
2022/09/12 12:27:52;;;;;;;2.97;2.70;;;26.10;99.90;;;;;;4858108;29;20568;-51
2022/09/12 12:30:30;;;;;;;2.87;2.67;;;26.50;99.90;;;;;;4859436;29;20241;-51
2022/09/12 12:33:09;;;;;;;2.40;2.30;;;26.30;99.90;;;;;;4858937;29;20473;-51
2022/09/12 12:35:34;;;;;;;2.67;2.40;;;26.20;99.90;;;;;;4848758;29;20494;-51
2022/09/12 12:38:01;;;;;;;5.17;3.13;;;26.10;99.90;;;;;;4858351;29;20813;-51
2022/09/12 12:40:29;;;;;;;3.07;2.80;;;25.90;99.90;;;;;;4859756;29;20622;-51
2022/09/12 12:42:54;;;;;;;3.43;2.30;;;25.50;99.90;;;;;;4858723;29;20468;-61
2022/09/12 12:45:26;;;;;;;3.93;2.70;;;25.20;99.90;;;;;;4858544;29;20458;-51
2022/09/12 12:48:14;;;;;;;2.80;2.37;;;25.20;99.90;;;;;;4858119;29;20679;-50
2022/09/12 12:50:40;;;;;;;3.20;2.50;;;25.20;99.90;;;;;;4863948;29;20461;-50
2022/09/12 12:53:21;;;;;;;2.30;2.10;;;25.20;99.90;;;;;;4859670;29;20430;-51
2022/09/12 12:55:51;;;;;;;2.60;2.27;;;25.10;99.90;;;;;;4858320;29;20185;-51
2022/09/12 12:58:32;;;;;;;2.93;2.50;;;25.10;99.90;;;;;;4859150;29;20430;-50
2022/09/12 13:01:03;;;;;;;2.83;2.30;;;24.90;99.90;;;;;;4858314;29;20448;-50
2022/09/12 13:03:32;;;;;;;2.67;2.40;;;24.60;99.90;;;;;;4858673;29;20490;-50
2022/09/12 13:06:07;;;;;;;2.60;2.40;;;24.20;99.90;;;;;;4855292;29;21001;-50
2022/09/12 13:08:37;;;;;;;4.50;2.30;;;24.00;99.90;;;;;;4859386;29;20465;-50
2022/09/12 13:11:07;;;;;;;2.37;2.27;;;24.10;99.90;;;;;;4857586;29;20819;-50
2022/09/12 13:13:50;;;;;;;2.23;2.10;;;23.80;99.90;;;;;;4856463;29;20853;-61